Marigold, California
Current Conditions -  °F | °C
As of 4:48 PM on Friday 19 Dec 2014 (Local Time) from KSBD Reporting Station
Broken Clouds Broken Clouds  
Wind Chill: 57°   Ceiling: 15000
Heat Index: 57°   Visibility: 10mi
Dew Point: 41°   Wind: 5mph
Humidity: 55%   Direction: 240°WSW
Pressure: 30.15"   Gusts: NA
Location:  34.0057°N, 117.15°W
Report Text: KSBD 200048Z 24004KT 10SM BKN150 14/05 A3015
Loading
Personal Weather Stations






























Interactive Weather Map New forecast layout! Learn more

10-Day Weather Forecast

Advertisements
Track Severe Weather on mobile